Time;durP1;ratioP1;P1;durP2;ratioP2;P2;SDS_P1;SDS_P2;PMS_P1;PMS_P2;Temp;Humidity;BMP_temperature;BMP_pressure;BME280_temperature;BME280_humidity;BME280_pressure;Samples;Min_cycle;Max_cycle;Signal;HPM_P1;HPM_P2
2023/08/14 00:00:42;;;;;;;9.98;2.50;;;41.50;39.40;;;;;;5027642;28;20065;-58
2023/08/14 00:03:08;;;;;;;7.68;2.08;;;41.40;39.50;;;;;;5027204;28;20106;-58
2023/08/14 00:05:35;;;;;;;6.75;1.60;;;41.40;38.60;;;;;;5026996;28;20404;-58
2023/08/14 00:08:01;;;;;;;7.45;1.83;;;41.20;37.80;;;;;;5027468;28;20101;-56
2023/08/14 00:10:28;;;;;;;5.93;1.85;;;41.10;38.40;;;;;;5027963;28;20098;-58
2023/08/14 00:12:54;;;;;;;10.88;2.08;;;41.00;38.70;;;;;;5027082;28;20073;-57
2023/08/14 00:15:20;;;;;;;6.88;1.90;;;41.00;38.50;;;;;;5027178;28;20154;-56
2023/08/14 00:17:47;;;;;;;7.97;1.75;;;40.90;38.80;;;;;;5027365;28;20051;-55
2023/08/14 00:20:13;;;;;;;7.90;1.90;;;40.70;38.60;;;;;;5028934;28;20055;-58
2023/08/14 00:22:40;;;;;;;8.63;1.83;;;40.60;38.80;;;;;;5026315;28;20128;-56
2023/08/14 00:25:06;;;;;;;7.03;1.67;;;40.40;38.60;;;;;;5027540;28;20151;-58
2023/08/14 00:27:33;;;;;;;7.60;1.75;;;40.30;39.10;;;;;;5027164;28;20622;-58
2023/08/14 00:29:59;;;;;;;5.18;1.85;;;40.20;37.80;;;;;;5025953;28;20050;-56
2023/08/14 00:32:26;;;;;;;6.30;1.77;;;40.10;36.40;;;;;;5027265;28;20056;-56
2023/08/14 00:34:52;;;;;;;4.65;1.60;;;40.00;36.00;;;;;;5027533;28;20522;-54
2023/08/14 00:37:18;;;;;;;6.05;1.80;;;39.90;36.80;;;;;;5026323;28;20054;-56
2023/08/14 00:39:45;;;;;;;5.65;1.48;;;39.90;37.10;;;;;;5027068;28;20575;-56
2023/08/14 00:42:13;;;;;;;4.82;1.42;;;39.80;36.80;;;;;;5027152;28;20505;-57
2023/08/14 00:44:39;;;;;;;7.88;1.58;;;39.80;37.00;;;;;;5026985;28;20109;-55
2023/08/14 00:47:07;;;;;;;6.07;1.50;;;39.80;36.70;;;;;;5027635;28;20061;-56
2023/08/14 00:49:34;;;;;;;10.85;1.60;;;39.80;36.80;;;;;;5027081;28;20455;-58
2023/08/14 00:52:01;;;;;;;8.13;1.17;;;39.80;36.70;;;;;;5026705;28;20057;-55
2023/08/14 00:54:27;;;;;;;16.40;2.08;;;40.30;36.60;;;;;;5025006;28;20061;-60
2023/08/14 00:56:53;;;;;;;6.75;1.52;;;40.30;37.10;;;;;;5024367;28;20062;-54
2023/08/14 00:59:20;;;;;;;9.00;1.60;;;40.40;36.80;;;;;;5024207;28;20113;-59
2023/08/14 01:01:46;;;;;;;12.35;2.03;;;40.80;36.80;;;;;;5024927;28;20062;-55
2023/08/14 01:04:13;;;;;;;13.93;2.30;;;40.60;37.20;;;;;;5025335;28;20058;-56
2023/08/14 01:06:39;;;;;;;13.73;2.42;;;40.60;38.00;;;;;;5025828;28;20097;-55
2023/08/14 01:09:06;;;;;;;22.25;2.35;;;40.50;37.10;;;;;;5024902;28;20428;-58
2023/08/14 01:11:54;;;;;;;10.90;2.00;;;40.30;36.90;;;;;;5025403;28;20098;-57
2023/08/14 01:14:26;;;;;;;19.83;2.75;;;40.20;38.10;;;;;;5023412;28;20059;-56
2023/08/14 01:17:05;;;;;;;20.08;2.55;;;40.30;38.90;;;;;;5027297;28;20098;-57
2023/08/14 01:19:40;;;;;;;17.65;2.17;;;40.40;38.80;;;;;;5028606;28;20391;-58
2023/08/14 01:22:16;;;;;;;20.38;2.38;;;40.50;38.90;;;;;;5027800;28;20161;-59
2023/08/14 01:24:52;;;;;;;12.63;2.22;;;40.40;39.00;;;;;;5026472;28;20059;-54
2023/08/14 01:27:19;;;;;;;19.55;3.03;;;40.40;39.50;;;;;;5026947;28;20083;-58
2023/08/14 01:29:58;;;;;;;18.00;2.35;;;40.40;39.20;;;;;;5028631;28;20514;-54
2023/08/14 01:32:25;;;;;;;23.42;2.55;;;40.40;37.80;;;;;;5028971;28;20058;-56
2023/08/14 01:34:53;;;;;;;23.35;2.70;;;40.20;37.60;;;;;;5028222;28;20063;-56
2023/08/14 01:37:32;;;;;;;25.00;3.08;;;40.20;37.80;;;;;;5028543;28;20531;-58
2023/08/14 01:40:07;;;;;;;21.27;2.38;;;40.00;38.00;;;;;;5026600;28;20148;-55
2023/08/14 01:42:36;;;;;;;21.33;2.40;;;39.90;38.00;;;;;;5029042;28;20060;-57
2023/08/14 01:45:12;;;;;;;22.27;2.92;;;39.80;38.00;;;;;;5028583;28;20324;-57
2023/08/14 01:47:41;;;;;;;18.90;2.22;;;39.80;36.40;;;;;;5028330;28;20444;-58
2023/08/14 01:50:08;;;;;;;19.92;2.67;;;39.80;35.60;;;;;;5029117;28;20403;-55
2023/08/14 01:52:35;;;;;;;8.90;1.80;;;39.70;35.00;;;;;;5028901;28;20064;-59
2023/08/14 01:55:02;;;;;;;10.85;1.52;;;39.90;34.80;;;;;;5028523;28;20060;-55
2023/08/14 01:57:28;;;;;;;10.75;1.98;;;39.80;34.90;;;;;;5027289;28;20065;-54
2023/08/14 01:59:55;;;;;;;11.85;2.10;;;39.80;35.30;;;;;;5028576;28;20059;-57
2023/08/14 02:02:21;;;;;;;8.93;1.70;;;39.70;35.30;;;;;;5027097;28;20062;-53
2023/08/14 02:04:47;;;;;;;11.25;2.00;;;39.60;35.70;;;;;;5028389;28;20066;-58
2023/08/14 02:07:14;;;;;;;6.53;1.73;;;39.60;37.10;;;;;;5027321;28;20539;-58
2023/08/14 02:09:40;;;;;;;12.90;2.17;;;39.60;38.30;;;;;;5028060;28;20059;-58
2023/08/14 02:12:07;;;;;;;14.93;2.05;;;39.60;39.80;;;;;;5028065;28;20050;-55
2023/08/14 02:14:33;;;;;;;11.43;1.88;;;39.60;39.90;;;;;;5029174;28;20135;-57
2023/08/14 02:17:00;;;;;;;11.88;1.88;;;39.50;40.50;;;;;;5027692;28;20159;-55
2023/08/14 02:19:26;;;;;;;14.73;2.15;;;39.40;40.90;;;;;;5027286;28;20532;-59
2023/08/14 02:21:53;;;;;;;11.27;2.05;;;39.40;41.40;;;;;;5027535;28;20074;-56
2023/08/14 02:24:19;;;;;;;14.48;1.90;;;39.50;41.70;;;;;;5027774;28;20398;-56
2023/08/14 02:26:45;;;;;;;10.82;1.90;;;39.40;42.10;;;;;;5027874;28;20078;-56
2023/08/14 02:29:12;;;;;;;13.80;1.88;;;39.30;42.20;;;;;;5026564;28;20063;-57
2023/08/14 02:31:39;;;;;;;14.13;2.38;;;39.20;42.40;;;;;;5028879;28;20456;-54
2023/08/14 02:34:06;;;;;;;10.73;1.90;;;39.10;42.40;;;;;;5026919;28;20060;-57
2023/08/14 02:36:32;;;;;;;13.40;2.03;;;39.00;42.60;;;;;;5027363;28;20065;-54
2023/08/14 02:38:59;;;;;;;8.43;1.80;;;38.90;42.90;;;;;;5026256;28;20059;-55
2023/08/14 02:41:25;;;;;;;19.00;2.05;;;38.80;42.60;;;;;;5026984;28;20757;-58
2023/08/14 02:43:51;;;;;;;14.52;2.08;;;38.80;42.80;;;;;;5027210;28;20071;-56
2023/08/14 02:46:18;;;;;;;10.55;2.20;;;38.70;42.50;;;;;;5027231;28;20077;-56
2023/08/14 02:48:45;;;;;;;10.38;2.08;;;38.70;42.70;;;;;;5026267;28;20438;-57
2023/08/14 02:51:11;;;;;;;14.95;2.35;;;38.60;43.00;;;;;;5028580;28;20136;-57
2023/08/14 02:53:38;;;;;;;12.68;2.30;;;38.50;44.00;;;;;;5027925;28;20048;-53
2023/08/14 02:56:04;;;;;;;20.83;2.92;;;38.50;43.50;;;;;;5026332;28;20062;-52
2023/08/14 02:58:31;;;;;;;21.52;3.10;;;38.40;42.40;;;;;;5027278;28;20061;-56
2023/08/14 03:00:57;;;;;;;15.85;3.25;;;38.30;43.00;;;;;;5027281;28;20056;-57
2023/08/14 03:03:24;;;;;;;16.02;2.92;;;38.20;43.20;;;;;;5026059;28;20060;-57
2023/08/14 03:05:50;;;;;;;13.70;3.13;;;38.10;43.50;;;;;;5027540;28;20110;-56
2023/08/14 03:08:17;;;;;;;19.40;3.05;;;38.00;43.60;;;;;;5026955;28;20108;-54
2023/08/14 03:10:43;;;;;;;16.67;3.60;;;38.00;44.10;;;;;;5027752;28;20093;-54
2023/08/14 03:13:09;;;;;;;15.95;3.03;;;37.90;43.90;;;;;;5027323;28;20054;-60
2023/08/14 03:15:36;;;;;;;17.42;2.85;;;37.80;44.20;;;;;;5027224;28;20148;-54
2023/08/14 03:18:02;;;;;;;22.15;3.17;;;37.70;44.30;;;;;;5026557;28;20101;-58
2023/08/14 03:20:29;;;;;;;16.80;2.75;;;37.70;45.00;;;;;;5028199;28;20475;-53
2023/08/14 03:22:55;;;;;;;16.05;3.10;;;37.60;45.20;;;;;;5026915;28;20148;-55
2023/08/14 03:25:22;;;;;;;18.50;3.38;;;37.60;45.30;;;;;;5026480;28;20156;-53
2023/08/14 03:27:48;;;;;;;18.40;3.45;;;37.50;45.40;;;;;;5026440;28;20055;-55
2023/08/14 03:30:15;;;;;;;13.80;3.03;;;37.40;45.50;;;;;;5026271;28;20071;-54
2023/08/14 03:32:41;;;;;;;18.83;3.70;;;37.40;46.00;;;;;;5026741;28;20061;-56
2023/08/14 03:35:08;;;;;;;18.05;3.13;;;37.40;46.10;;;;;;5026713;28;20428;-54
2023/08/14 03:37:34;;;;;;;17.50;3.53;;;37.40;46.60;;;;;;5026145;28;20059;-59
2023/08/14 03:40:00;;;;;;;20.67;4.13;;;37.40;47.70;;;;;;5025467;28;20069;-58
2023/08/14 03:42:27;;;;;;;21.85;3.50;;;37.30;48.30;;;;;;5026539;28;20148;-56
2023/08/14 03:44:53;;;;;;;25.05;4.78;;;37.30;48.60;;;;;;5025205;28;20067;-54
2023/08/14 03:47:20;;;;;;;21.63;4.15;;;37.30;48.90;;;;;;5025629;28;20069;-58
2023/08/14 03:49:46;;;;;;;20.38;4.20;;;37.30;49.10;;;;;;5026850;28;20107;-53
2023/08/14 03:52:13;;;;;;;26.67;4.15;;;37.30;49.60;;;;;;5026099;28;20475;-54
2023/08/14 03:54:39;;;;;;;31.67;4.90;;;37.30;50.40;;;;;;5027380;28;20533;-55
2023/08/14 03:57:05;;;;;;;30.70;4.05;;;37.10;49.60;;;;;;5027702;28;20073;-55
2023/08/14 03:59:32;;;;;;;36.17;4.05;;;37.10;49.90;;;;;;5027454;28;20081;-55
2023/08/14 04:01:58;;;;;;;22.58;4.68;;;37.10;50.30;;;;;;5025398;28;20413;-54
2023/08/14 04:04:24;;;;;;;18.58;4.68;;;37.00;50.30;;;;;;5026362;28;20068;-57
2023/08/14 04:06:51;;;;;;;20.23;4.65;;;37.00;50.50;;;;;;5026410;28;20152;-55
2023/08/14 04:09:17;;;;;;;27.55;4.90;;;36.90;51.00;;;;;;5026378;28;20064;-57
2023/08/14 04:11:44;;;;;;;37.85;5.10;;;36.90;50.90;;;;;;5026340;28;20068;-59
2023/08/14 04:14:11;;;;;;;29.92;4.90;;;36.80;50.90;;;;;;5026126;28;20070;-52
2023/08/14 04:16:43;;;;;;;25.27;4.57;;;36.70;51.10;;;;;;5026089;28;20089;-56
2023/08/14 04:19:18;;;;;;;28.98;5.00;;;36.70;50.90;;;;;;5027328;28;20141;-57
2023/08/14 04:21:44;;;;;;;33.88;5.15;;;36.60;50.90;;;;;;5026187;28;20601;-56
2023/08/14 04:24:11;;;;;;;30.92;5.10;;;36.60;51.00;;;;;;5025836;28;20087;-51
2023/08/14 04:26:37;;;;;;;24.42;5.10;;;36.50;51.10;;;;;;5025642;28;20482;-58
2023/08/14 04:29:07;;;;;;;25.27;4.90;;;36.50;51.80;;;;;;5024736;28;20076;-58
2023/08/14 04:31:34;;;;;;;34.35;4.82;;;36.50;51.80;;;;;;5025271;28;20069;-55
2023/08/14 04:34:02;;;;;;;24.20;4.80;;;36.40;51.50;;;;;;5025749;28;20075;-55
2023/08/14 04:36:32;;;;;;;21.83;5.50;;;36.40;51.90;;;;;;5025888;28;20084;-54
2023/08/14 04:38:59;;;;;;;20.38;4.80;;;36.30;52.10;;;;;;5025078;28;20559;-55
2023/08/14 04:41:26;;;;;;;18.27;4.82;;;36.30;52.30;;;;;;5024740;28;20171;-56
2023/08/14 04:43:54;;;;;;;27.90;5.13;;;36.20;51.90;;;;;;5024890;28;20737;-55
2023/08/14 04:46:34;;;;;;;25.27;4.88;;;36.20;51.80;;;;;;5026241;28;20084;-56
2023/08/14 04:49:01;;;;;;;17.33;3.80;;;36.10;51.90;;;;;;5026371;28;20074;-55
2023/08/14 04:51:28;;;;;;;23.55;4.50;;;36.10;51.90;;;;;;5025824;28;20080;-57
2023/08/14 04:53:55;;;;;;;24.17;4.38;;;36.00;51.90;;;;;;5026722;28;20064;-53
2023/08/14 04:56:22;;;;;;;26.27;4.80;;;36.00;51.90;;;;;;5026974;28;20085;-55
2023/08/14 04:58:48;;;;;;;19.85;3.72;;;35.90;51.90;;;;;;5026476;28;20085;-55
2023/08/14 05:01:15;;;;;;;17.67;4.07;;;35.90;52.00;;;;;;5026017;28;20195;-54
2023/08/14 05:03:41;;;;;;;27.17;4.30;;;35.90;52.00;;;;;;5027011;28;20244;-51
2023/08/14 05:06:08;;;;;;;30.60;4.47;;;35.90;52.00;;;;;;5026548;28;20153;-55
2023/08/14 05:08:35;;;;;;;20.40;4.00;;;35.80;52.10;;;;;;5025407;28;20578;-54
2023/08/14 05:11:02;;;;;;;28.92;4.68;;;35.70;52.20;;;;;;5026600;28;20686;-63
2023/08/14 05:13:28;;;;;;;31.92;4.65;;;36.10;51.70;;;;;;5025265;28;20077;-61
2023/08/14 05:15:57;;;;;;;18.33;4.18;;;36.50;51.20;;;;;;5023941;28;20103;-62
2023/08/14 05:18:23;;;;;;;24.27;3.75;;;36.70;50.50;;;;;;5023657;28;20077;-63
2023/08/14 05:20:50;;;;;;;54.80;5.88;;;36.80;50.20;;;;;;5023889;28;20167;-62
2023/08/14 05:23:17;;;;;;;25.02;3.70;;;36.90;50.10;;;;;;5024993;28;20104;-64
2023/08/14 05:25:44;;;;;;;29.65;4.07;;;37.00;49.80;;;;;;5025607;28;20529;-59
2023/08/14 05:28:11;;;;;;;28.17;4.60;;;37.10;49.60;;;;;;5025599;28;20083;-58
2023/08/14 05:30:42;;;;;;;32.13;4.15;;;37.00;49.70;;;;;;5024627;28;20126;-55
2023/08/14 05:33:09;;;;;;;19.13;3.80;;;36.90;49.80;;;;;;5024965;28;20065;-57
2023/08/14 05:35:35;;;;;;;31.83;5.45;;;37.00;50.10;;;;;;5025522;28;20067;-57
2023/08/14 05:38:02;;;;;;;32.35;4.38;;;37.20;49.90;;;;;;5024060;28;20067;-58
2023/08/14 05:40:28;;;;;;;26.80;4.47;;;37.30;49.40;;;;;;5024768;28;20146;-59
2023/08/14 05:43:11;;;;;;;21.90;4.05;;;37.20;49.10;;;;;;5024540;28;20436;-57
2023/08/14 05:45:41;;;;;;;22.30;4.18;;;37.20;49.40;;;;;;5024126;28;20085;-56
2023/08/14 05:48:08;;;;;;;23.48;3.65;;;37.10;49.40;;;;;;5024305;28;20069;-57
2023/08/14 05:50:35;;;;;;;25.23;3.70;;;37.20;49.40;;;;;;5025539;28;20064;-58
2023/08/14 05:53:06;;;;;;;19.50;3.83;;;37.00;49.10;;;;;;5024969;28;20128;-59
2023/08/14 05:55:37;;;;;;;21.83;3.65;;;36.90;49.60;;;;;;5025446;28;20081;-55
2023/08/14 05:58:04;;;;;;;17.25;3.53;;;37.00;49.60;;;;;;5024832;28;20104;-58
2023/08/14 06:00:31;;;;;;;20.67;3.63;;;36.90;49.70;;;;;;5025129;28;20478;-59
2023/08/14 06:02:57;;;;;;;20.55;4.03;;;36.80;49.80;;;;;;5025875;28;20078;-56
2023/08/14 06:05:24;;;;;;;21.13;3.90;;;36.70;50.20;;;;;;5028142;28;20147;-58
2023/08/14 06:07:52;;;;;;;23.17;3.35;;;36.60;49.80;;;;;;5026460;28;20065;-61
2023/08/14 06:10:19;;;;;;;22.17;3.65;;;36.50;49.70;;;;;;5028735;28;20531;-60
2023/08/14 06:12:48;;;;;;;13.55;3.30;;;36.40;50.30;;;;;;5027875;28;20110;-57
2023/08/14 06:15:15;;;;;;;27.88;3.42;;;36.30;50.30;;;;;;5027267;28;20096;-58
2023/08/14 06:17:43;;;;;;;18.52;3.15;;;36.20;50.60;;;;;;5028520;28;20106;-58
2023/08/14 06:20:11;;;;;;;21.02;3.85;;;36.10;50.90;;;;;;5029121;28;20069;-57
2023/08/14 06:22:46;;;;;;;29.50;4.32;;;36.10;50.60;;;;;;5028348;28;20069;-58
2023/08/14 06:25:13;;;;;;;27.83;5.10;;;36.00;50.60;;;;;;5028427;28;20087;-56
2023/08/14 06:27:41;;;;;;;25.00;5.05;;;35.90;50.50;;;;;;5028789;28;20123;-60
2023/08/14 06:30:08;;;;;;;26.00;5.13;;;35.90;50.40;;;;;;5029026;28;20487;-58
2023/08/14 06:32:35;;;;;;;25.45;5.00;;;35.90;50.10;;;;;;5028272;28;20419;-56
2023/08/14 06:35:02;;;;;;;21.10;4.55;;;35.80;49.80;;;;;;5028494;28;20110;-57
2023/08/14 06:37:29;;;;;;;24.00;5.13;;;35.80;50.00;;;;;;5028014;28;20159;-57
2023/08/14 06:39:55;;;;;;;32.97;5.47;;;35.80;49.90;;;;;;5027798;28;20088;-54
2023/08/14 06:42:22;;;;;;;21.42;4.32;;;35.80;50.10;;;;;;5028468;28;20351;-56
2023/08/14 06:44:48;;;;;;;30.40;4.90;;;35.80;50.40;;;;;;5027893;28;20115;-58
2023/08/14 06:47:14;;;;;;;26.00;4.07;;;35.70;50.60;;;;;;5026511;28;20182;-57
2023/08/14 06:49:41;;;;;;;18.60;4.30;;;35.60;50.80;;;;;;5028022;28;20722;-57
2023/08/14 06:52:07;;;;;;;34.05;6.00;;;35.50;51.40;;;;;;5027222;28;20084;-56
2023/08/14 06:54:34;;;;;;;28.17;6.13;;;35.40;50.60;;;;;;5027789;28;20081;-60
2023/08/14 06:57:01;;;;;;;25.83;6.65;;;35.30;50.90;;;;;;5028049;28;20112;-56
2023/08/14 06:59:27;;;;;;;27.77;6.53;;;35.30;50.50;;;;;;5027983;28;20720;-57
2023/08/14 07:01:55;;;;;;;27.50;5.88;;;35.30;50.90;;;;;;5027088;28;20220;-59
2023/08/14 07:04:22;;;;;;;35.92;6.90;;;35.30;50.80;;;;;;5027811;28;20175;-54
2023/08/14 07:06:48;;;;;;;24.00;6.40;;;35.30;50.80;;;;;;5028271;28;20117;-56
2023/08/14 07:09:16;;;;;;;24.08;5.85;;;35.30;50.60;;;;;;5027614;28;20081;-60
2023/08/14 07:11:43;;;;;;;31.05;6.43;;;35.20;50.90;;;;;;5027689;28;20170;-62
2023/08/14 07:14:09;;;;;;;25.23;6.07;;;35.20;50.60;;;;;;5027517;28;20478;-55
2023/08/14 07:16:36;;;;;;;17.52;4.75;;;35.00;50.80;;;;;;5027813;28;20509;-59
2023/08/14 07:19:03;;;;;;;17.30;4.70;;;34.80;50.80;;;;;;5028512;28;20107;-56
2023/08/14 07:21:29;;;;;;;22.35;5.00;;;34.80;51.00;;;;;;5027573;28;20083;-58
2023/08/14 07:23:56;;;;;;;26.23;5.35;;;34.80;51.80;;;;;;5026967;28;20087;-58
2023/08/14 07:26:22;;;;;;;12.70;4.28;;;34.80;51.70;;;;;;5028149;28;20456;-55
2023/08/14 07:28:49;;;;;;;22.58;4.35;;;34.60;51.50;;;;;;5028699;28;20079;-61
2023/08/14 07:31:15;;;;;;;19.95;4.53;;;34.60;51.50;;;;;;5027377;28;20091;-59
2023/08/14 07:33:41;;;;;;;17.83;3.83;;;34.60;51.40;;;;;;5027109;28;20081;-60
2023/08/14 07:36:08;;;;;;;12.38;2.95;;;34.60;51.00;;;;;;5027872;28;20080;-58
2023/08/14 07:38:34;;;;;;;14.07;3.20;;;34.40;51.10;;;;;;5027544;28;20580;-58
2023/08/14 07:41:01;;;;;;;11.82;2.80;;;34.50;51.30;;;;;;5027140;28;20549;-59
2023/08/14 07:43:27;;;;;;;12.65;3.38;;;34.60;51.30;;;;;;5027454;28;21541;-59
2023/08/14 07:45:54;;;;;;;21.73;2.88;;;34.50;51.20;;;;;;5027754;28;20174;-58
2023/08/14 07:48:20;;;;;;;13.57;3.30;;;34.50;51.10;;;;;;5026977;28;20456;-60
2023/08/14 07:50:55;;;;;;;17.45;3.40;;;34.40;51.20;;;;;;5027706;28;20080;-58
2023/08/14 07:53:22;;;;;;;14.35;2.63;;;34.40;51.90;;;;;;5027921;28;20084;-58
2023/08/14 07:55:48;;;;;;;22.00;3.10;;;34.20;52.70;;;;;;5027066;28;20087;-58
2023/08/14 07:58:16;;;;;;;15.52;2.80;;;34.00;53.90;;;;;;5027125;28;20082;-60
2023/08/14 08:10:48;;;;;;;12.02;2.40;;;33.80;56.80;;;;;;5027078;28;20086;-58
2023/08/14 08:13:14;;;;;;;12.23;2.85;;;33.80;57.00;;;;;;5027677;28;20167;-59
2023/08/14 08:15:41;;;;;;;5.72;2.17;;;33.70;57.30;;;;;;5026728;28;20558;-58
2023/08/14 08:18:07;;;;;;;11.55;1.95;;;33.60;57.80;;;;;;5026812;28;20116;-56
2023/08/14 08:20:34;;;;;;;11.88;2.05;;;33.60;58.10;;;;;;5028154;28;20077;-58
2023/08/14 08:23:00;;;;;;;7.32;2.10;;;33.60;58.20;;;;;;5026169;28;20088;-58
2023/08/14 08:25:26;;;;;;;7.78;2.40;;;33.60;58.50;;;;;;5026439;28;20540;-59
2023/08/14 08:27:53;;;;;;;7.35;1.85;;;33.60;58.40;;;;;;5027273;28;20083;-58
2023/08/14 08:30:19;;;;;;;10.40;2.15;;;33.60;58.50;;;;;;5026801;28;20152;-58
2023/08/14 08:32:46;;;;;;;12.27;2.50;;;33.40;58.90;;;;;;5027133;28;20080;-58
2023/08/14 08:35:13;;;;;;;10.45;2.63;;;33.50;60.00;;;;;;5027080;28;20572;-59
2023/08/14 08:37:39;;;;;;;12.60;2.90;;;33.40;60.90;;;;;;5025923;28;20162;-59
2023/08/14 08:40:06;;;;;;;15.63;2.88;;;33.50;61.40;;;;;;5026008;28;20083;-58
2023/08/14 08:42:33;;;;;;;6.15;2.10;;;33.40;61.80;;;;;;5026953;28;20612;-58
2023/08/14 08:45:04;;;;;;;5.15;2.28;;;33.40;61.80;;;;;;5026252;28;20097;-57
2023/08/14 08:47:35;;;;;;;8.80;2.65;;;33.50;62.00;;;;;;5025817;28;20396;-57
2023/08/14 08:50:02;;;;;;;4.90;1.90;;;33.40;62.30;;;;;;5026888;28;20155;-58
2023/08/14 08:52:29;;;;;;;7.68;2.10;;;33.40;62.50;;;;;;5026571;28;20084;-55
2023/08/14 08:54:58;;;;;;;8.60;2.20;;;33.30;63.50;;;;;;5026846;28;20080;-58
2023/08/14 08:57:25;;;;;;;4.32;2.00;;;33.20;63.80;;;;;;5027033;28;20458;-57
2023/08/14 08:59:52;;;;;;;9.20;1.98;;;33.10;65.70;;;;;;5026510;28;20096;-56
2023/08/14 09:02:19;;;;;;;5.43;1.98;;;33.00;66.20;;;;;;5026462;28;20534;-60
2023/08/14 09:04:45;;;;;;;6.03;2.10;;;32.90;68.20;;;;;;5026383;28;20559;-58
2023/08/14 09:07:11;;;;;;;5.00;2.00;;;32.90;68.20;;;;;;5026123;28;20100;-57
2023/08/14 09:09:38;;;;;;;9.15;2.03;;;32.80;69.40;;;;;;5027412;28;20091;-57
2023/08/14 09:12:04;;;;;;;9.07;1.98;;;32.70;69.70;;;;;;5026069;28;20133;-56
2023/08/14 09:14:31;;;;;;;9.27;2.08;;;32.60;71.10;;;;;;5026392;28;20496;-59
2023/08/14 09:16:58;;;;;;;7.40;2.25;;;32.60;72.00;;;;;;5026362;28;20167;-57
2023/08/14 09:19:24;;;;;;;11.10;2.20;;;32.50;73.40;;;;;;5026042;28;20576;-57
2023/08/14 09:21:51;;;;;;;8.82;1.80;;;32.40;76.20;;;;;;5025905;28;20116;-57
2023/08/14 09:24:18;;;;;;;7.93;2.00;;;32.40;76.90;;;;;;5026159;28;20088;-58
2023/08/14 09:26:45;;;;;;;4.82;1.98;;;32.40;77.10;;;;;;5026213;28;20545;-59
2023/08/14 09:29:15;;;;;;;10.27;2.38;;;32.20;77.90;;;;;;5027181;28;20501;-58
2023/08/14 09:31:45;;;;;;;6.20;2.90;;;32.40;79.20;;;;;;5025262;28;20167;-60
2023/08/14 09:34:21;;;;;;;6.20;3.33;;;32.20;80.50;;;;;;5026027;28;20095;-59
2023/08/14 09:36:48;;;;;;;7.22;3.65;;;32.10;81.80;;;;;;5027401;28;20081;-57
2023/08/14 09:39:14;;;;;;;8.02;4.05;;;32.10;82.90;;;;;;5029772;28;20131;-59
2023/08/14 09:41:45;;;;;;;9.45;4.90;;;32.10;83.70;;;;;;5029691;28;20171;-61
2023/08/14 09:44:12;;;;;;;9.75;5.43;;;32.10;84.30;;;;;;5029207;28;20505;-60
2023/08/14 09:46:40;;;;;;;10.07;5.57;;;31.90;85.00;;;;;;5029463;28;20175;-59
2023/08/14 09:49:06;;;;;;;16.25;7.85;;;31.90;85.90;;;;;;5029733;28;20085;-60
2023/08/14 09:51:33;;;;;;;18.58;8.40;;;31.80;85.40;;;;;;5029787;28;20727;-59
2023/08/14 09:53:59;;;;;;;14.13;7.85;;;31.80;86.10;;;;;;5029675;28;20096;-57
2023/08/14 09:56:26;;;;;;;15.20;8.27;;;31.80;86.80;;;;;;5030056;28;20107;-58
2023/08/14 09:58:54;;;;;;;16.52;7.95;;;31.70;87.50;;;;;;5030990;28;20134;-58
2023/08/14 10:01:22;;;;;;;13.35;7.50;;;31.70;88.50;;;;;;5030246;28;20080;-60
2023/08/14 10:03:53;;;;;;;13.02;6.65;;;31.70;89.20;;;;;;5028973;28;20089;-59
2023/08/14 10:06:23;;;;;;;10.35;5.18;;;31.70;89.60;;;;;;5027854;28;20097;-56
2023/08/14 10:08:55;;;;;;;13.63;4.40;;;31.80;90.50;;;;;;5027884;28;20434;-58
2023/08/14 10:11:26;;;;;;;16.25;4.80;;;31.70;91.30;;;;;;5029575;28;20084;-58
2023/08/14 10:13:56;;;;;;;11.60;4.60;;;31.60;91.50;;;;;;5029242;28;20593;-56
2023/08/14 10:16:27;;;;;;;9.13;3.55;;;31.70;91.70;;;;;;5027743;28;20132;-54
2023/08/14 10:18:58;;;;;;;8.35;3.95;;;31.70;91.90;;;;;;5029354;28;20092;-59
2023/08/14 10:21:28;;;;;;;6.97;3.00;;;31.70;92.30;;;;;;5029547;28;20091;-56
2023/08/14 10:23:58;;;;;;;11.02;3.10;;;31.60;92.70;;;;;;5029944;28;20186;-57
2023/08/14 10:26:25;;;;;;;6.05;2.53;;;31.60;93.00;;;;;;5028742;28;20453;-54
2023/08/14 10:28:53;;;;;;;6.32;2.35;;;31.60;93.30;;;;;;5028946;28;20081;-57
2023/08/14 10:31:21;;;;;;;9.82;2.90;;;31.50;93.50;;;;;;5025748;28;20077;-53
2023/08/14 10:33:47;;;;;;;9.98;2.90;;;31.50;93.70;;;;;;5028649;28;20130;-57
2023/08/14 10:36:22;;;;;;;9.57;2.70;;;31.50;93.80;;;;;;5028975;28;20087;-56
2023/08/14 10:38:50;;;;;;;10.80;3.17;;;31.50;94.10;;;;;;5028375;28;20602;-56
2023/08/14 10:41:19;;;;;;;13.20;2.90;;;31.20;94.50;;;;;;5029786;28;20454;-59
2023/08/14 10:43:52;;;;;;;9.13;2.78;;;31.30;94.90;;;;;;5028058;28;20219;-57
2023/08/14 10:46:18;;;;;;;14.77;3.45;;;31.10;95.30;;;;;;5028013;28;20150;-60
2023/08/14 10:48:48;;;;;;;8.25;3.03;;;31.10;95.50;;;;;;5027566;28;20081;-59
2023/08/14 10:51:21;;;;;;;11.18;3.15;;;31.00;95.80;;;;;;5028686;28;20542;-57
2023/08/14 10:53:47;;;;;;;9.05;3.30;;;31.00;96.10;;;;;;5029236;28;20175;-57
2023/08/14 10:56:14;;;;;;;11.38;2.97;;;31.00;96.60;;;;;;5028254;28;20578;-57
2023/08/14 10:58:51;;;;;;;10.57;3.45;;;31.00;96.30;;;;;;5027261;28;20119;-58
2023/08/14 11:01:18;;;;;;;13.63;3.60;;;31.00;96.40;;;;;;5025191;28;20214;-59
2023/08/14 11:04:04;;;;;;;9.25;3.40;;;30.90;96.80;;;;;;5028328;28;20233;-57
2023/08/14 11:07:02;;;;;;;8.68;3.08;;;30.80;97.10;;;;;;5027846;28;20111;-59
2023/08/14 11:09:36;;;;;;;15.02;3.80;;;30.80;97.20;;;;;;5027582;28;20076;-58
2023/08/14 11:12:05;;;;;;;7.32;3.63;;;30.70;97.40;;;;;;5028223;28;20134;-57
2023/08/14 11:14:36;;;;;;;8.45;3.33;;;30.70;97.60;;;;;;5028104;28;20100;-61
2023/08/14 11:17:03;;;;;;;10.02;3.80;;;30.60;98.00;;;;;;5026559;28;20566;-59
2023/08/14 11:19:29;;;;;;;10.73;3.90;;;30.70;98.00;;;;;;5027876;28;20493;-60
2023/08/14 11:21:56;;;;;;;9.85;4.05;;;30.60;98.20;;;;;;5028507;28;20097;-59
2023/08/14 11:24:23;;;;;;;12.57;3.80;;;30.70;98.30;;;;;;5027992;28;20545;-55
2023/08/14 11:26:50;;;;;;;9.45;3.92;;;30.80;98.30;;;;;;5027650;28;20155;-58
2023/08/14 11:29:17;;;;;;;9.25;3.80;;;30.80;98.10;;;;;;5028524;28;20180;-52
2023/08/14 11:31:44;;;;;;;11.07;3.90;;;30.70;98.60;;;;;;5028083;28;20077;-57
2023/08/14 11:34:10;;;;;;;11.88;4.25;;;30.70;98.80;;;;;;5027987;28;20072;-57
2023/08/14 11:36:41;;;;;;;12.43;4.10;;;30.80;98.60;;;;;;5027751;28;20112;-54
2023/08/14 11:39:08;;;;;;;15.05;4.43;;;30.80;98.60;;;;;;5028047;28;20539;-58
2023/08/14 11:41:35;;;;;;;12.00;4.30;;;30.80;98.50;;;;;;5027452;28;20101;-58
2023/08/14 11:44:02;;;;;;;13.55;4.70;;;30.80;98.60;;;;;;5026022;28;20176;-57
2023/08/14 11:46:28;;;;;;;12.82;5.03;;;30.70;98.60;;;;;;5027078;28;20139;-56
2023/08/14 11:48:55;;;;;;;9.73;4.28;;;30.60;98.90;;;;;;5027785;28;20081;-57
2023/08/14 11:51:22;;;;;;;12.48;4.82;;;30.60;99.20;;;;;;5027733;28;20108;-60
2023/08/14 11:53:49;;;;;;;12.43;4.53;;;30.50;99.50;;;;;;5027310;28;20387;-59
2023/08/14 11:56:15;;;;;;;13.95;4.32;;;30.50;99.70;;;;;;5027534;28;20111;-58
2023/08/14 11:58:41;;;;;;;10.68;4.63;;;30.50;99.80;;;;;;5027360;28;20562;-58
2023/08/14 12:01:09;;;;;;;11.75;4.25;;;30.50;99.70;;;;;;5024620;28;20503;-57
2023/08/14 12:03:36;;;;;;;14.40;4.55;;;30.60;99.70;;;;;;5026608;28;20112;-57
2023/08/14 12:06:04;;;;;;;12.25;4.30;;;30.60;99.60;;;;;;5027346;28;21434;-56
2023/08/14 12:08:31;;;;;;;15.48;4.32;;;30.70;99.70;;;;;;5026972;28;20592;-57
2023/08/14 12:10:58;;;;;;;13.52;4.38;;;30.70;99.80;;;;;;5025420;28;20100;-58
2023/08/14 12:13:24;;;;;;;10.63;4.22;;;30.60;99.80;;;;;;5026927;28;20104;-58
2023/08/14 12:15:51;;;;;;;11.40;3.85;;;30.60;99.90;;;;;;5027140;28;20109;-58
2023/08/14 12:18:24;;;;;;;18.73;4.68;;;30.60;99.90;;;;;;5026921;28;20091;-57
2023/08/14 12:20:56;;;;;;;9.85;4.28;;;30.50;99.90;;;;;;5027366;28;20511;-58
2023/08/14 12:23:23;;;;;;;9.25;4.32;;;30.50;99.90;;;;;;5025801;28;20085;-57
2023/08/14 12:25:54;;;;;;;11.48;4.05;;;30.50;99.90;;;;;;5026668;28;20093;-57
2023/08/14 12:28:21;;;;;;;11.98;3.95;;;30.40;99.90;;;;;;5025719;28;20078;-57
2023/08/14 12:30:49;;;;;;;9.88;3.67;;;30.50;99.90;;;;;;5026090;28;20080;-57
2023/08/14 12:33:16;;;;;;;8.23;3.13;;;30.40;99.90;;;;;;5025751;28;20113;-58
2023/08/14 12:35:43;;;;;;;14.20;3.22;;;30.30;99.90;;;;;;5026981;28;20592;-56
2023/08/14 12:38:09;;;;;;;16.13;3.65;;;30.10;99.90;;;;;;5026989;28;20084;-54
2023/08/14 12:40:36;;;;;;;12.70;3.13;;;30.10;99.90;;;;;;5026711;28;20103;-59
2023/08/14 12:43:03;;;;;;;7.53;2.42;;;30.20;99.90;;;;;;5026258;28;20093;-56
2023/08/14 12:45:29;;;;;;;12.15;3.40;;;30.10;99.90;;;;;;5026787;28;20167;-58
2023/08/14 12:47:56;;;;;;;9.45;2.90;;;30.00;99.90;;;;;;5025963;28;20081;-59
2023/08/14 12:50:22;;;;;;;11.05;2.85;;;30.00;99.90;;;;;;5027607;28;20449;-56
2023/08/14 12:52:48;;;;;;;8.63;2.70;;;30.10;99.90;;;;;;5026102;28;20103;-57